Time;durP1;ratioP1;P1;durP2;ratioP2;P2;SDS_P1;SDS_P2;PMS_P1;PMS_P2;Temp;Humidity;BMP_temperature;BMP_pressure;BME280_temperature;BME280_humidity;BME280_pressure;Samples;Min_cycle;Max_cycle;Signal;HPM_P1;HPM_P2
2022/11/26 00:00:25;;;;;;;;;;;8.50;99.90;;;;;;5095320;28;19928;-80
2022/11/26 00:02:52;;;;;;;;;;;8.40;99.90;;;;;;5094876;28;19908;-80
2022/11/26 00:05:18;;;;;;;;;;;8.40;99.90;;;;;;5093757;28;19912;-81
2022/11/26 00:07:46;;;;;;;;;;;8.50;99.90;;;;;;5093874;28;19946;-81
2022/11/26 00:10:20;;;;;;;;;;;8.50;99.90;;;;;;5095087;28;19908;-81
2022/11/26 00:12:45;;;;;;;;;;;8.50;99.90;;;;;;5093380;28;19915;-80
2022/11/26 00:15:24;;;;;;;;;;;8.50;99.90;;;;;;5094931;28;20273;-81
2022/11/26 00:17:50;;;;;;;;;;;8.50;99.90;;;;;;5095171;28;19908;-80
2022/11/26 00:20:17;;;;;;;;;;;8.50;99.90;;;;;;5094936;28;20584;-81
2022/11/26 00:22:50;;;;;;;;;;;8.50;99.90;;;;;;5094526;28;19912;-81
2022/11/26 00:25:17;;;;;;;;;;;8.40;99.90;;;;;;5094783;28;19916;-81
2022/11/26 00:27:43;;;;;;;;;;;8.40;99.90;;;;;;5095002;28;19939;-80
2022/11/26 00:30:19;;;;;;;;;;;8.40;99.90;;;;;;5094835;28;19919;-80
2022/11/26 00:32:45;;;;;;;;;;;8.40;99.90;;;;;;5093255;28;19915;-81
2022/11/26 00:35:10;;;;;;;;;;;8.40;99.90;;;;;;5094903;28;20378;-81
2022/11/26 00:37:44;;;;;;;;;;;8.40;99.90;;;;;;5094810;28;19908;-80
2022/11/26 00:40:30;;;;;;;;;;;8.40;99.90;;;;;;5094647;28;19908;-80
2022/11/26 00:42:56;;;;;;;;;;;8.40;99.90;;;;;;5094313;28;19931;-81
2022/11/26 00:45:26;;;;;;;;;;;8.30;99.90;;;;;;5094374;28;19912;-80
2022/11/26 00:47:52;;;;;;;;;;;8.30;99.90;;;;;;5094210;28;19912;-80
2022/11/26 00:50:19;;;;;;;;;;;8.20;99.90;;;;;;5094323;28;20436;-80
2022/11/26 00:52:45;;;;;;;;;;;8.10;99.90;;;;;;5094137;28;20273;-81
2022/11/26 00:55:27;;;;;;;;;;;8.10;99.90;;;;;;5092858;28;19908;-80
2022/11/26 00:57:53;;;;;;;;;;;8.00;99.90;;;;;;5092921;28;19915;-82
2022/11/26 01:00:20;;;;;;;;;;;8.00;99.90;;;;;;5094204;28;19950;-81
2022/11/26 01:02:46;;;;;;;;;;;7.90;99.90;;;;;;5093912;28;19908;-81
2022/11/26 01:05:12;;;;;;;;;;;7.80;99.90;;;;;;5092675;28;19919;-80
2022/11/26 01:07:38;;;;;;;;;;;7.90;99.90;;;;;;5092849;28;19961;-80
2022/11/26 01:10:05;;;;;;;;;;;7.80;99.90;;;;;;5093204;28;20366;-81
2022/11/26 01:12:30;;;;;;;;;;;7.90;99.90;;;;;;5093550;28;19918;-80
2022/11/26 01:14:55;;;;;;;;;;;7.80;99.90;;;;;;5093845;28;20010;-80
2022/11/26 01:17:21;;;;;;;;;;;7.80;99.90;;;;;;5092473;28;19950;-80
2022/11/26 01:19:46;;;;;;;;;;;7.80;99.90;;;;;;5093752;28;19912;-81
2022/11/26 01:22:19;;;;;;;;;;;7.80;99.90;;;;;;5093374;28;19908;-80
2022/11/26 01:24:44;;;;;;;;;;;7.80;99.90;;;;;;5092153;28;20023;-80
2022/11/26 01:27:11;;;;;;;;;;;7.80;99.90;;;;;;5092291;28;20102;-80
2022/11/26 01:29:36;;;;;;;;;;;7.80;99.90;;;;;;5093600;28;20422;-81
2022/11/26 01:32:01;;;;;;;;;;;7.80;99.90;;;;;;5092001;28;19908;-80
2022/11/26 01:34:27;;;;;;;;;;;7.80;99.90;;;;;;5093591;28;19908;-81
2022/11/26 01:36:52;;;;;;;;;;;7.80;99.90;;;;;;5093425;28;19912;-80
2022/11/26 01:39:19;;;;;;;;;;;7.80;99.90;;;;;;5093451;28;19923;-80
2022/11/26 01:42:04;;;;;;;;;;;7.70;99.90;;;;;;5092961;28;19909;-80
2022/11/26 01:44:31;;;;;;;;;;;7.70;99.90;;;;;;5093345;28;19953;-80
2022/11/26 01:46:56;;;;;;;;;;;7.70;99.90;;;;;;5091867;28;19912;-80
2022/11/26 01:49:29;;;;;;;;;;;7.60;99.90;;;;;;5091865;28;19908;-80
2022/11/26 01:52:16;;;;;;;;;;;7.60;99.90;;;;;;5092825;28;19991;-81
2022/11/26 01:54:42;;;;;;;;;;;7.60;99.90;;;;;;5093148;28;19908;-80
2022/11/26 01:57:10;;;;;;;;;;;7.50;99.90;;;;;;5091746;28;19909;-80
2022/11/26 01:59:37;;;;;;;;;;;7.50;99.90;;;;;;5091757;28;19908;-80
2022/11/26 02:02:03;;;;;;;;;;;7.50;99.90;;;;;;5091397;28;19908;-80
2022/11/26 02:04:36;;;;;;;;;;;7.40;99.90;;;;;;5091722;28;19965;-80
2022/11/26 02:07:02;;;;;;;;;;;7.40;99.90;;;;;;5092827;28;19936;-80
2022/11/26 02:09:28;;;;;;;;;;;7.30;99.90;;;;;;5092949;28;20003;-80
2022/11/26 02:11:53;;;;;;;;;;;7.30;99.90;;;;;;5092684;28;19977;-80
2022/11/26 02:14:24;;;;;;;;;;;7.30;99.90;;;;;;5091684;28;19908;-80
2022/11/26 02:16:59;;;;;;;;;;;7.20;99.90;;;;;;5092807;28;19946;-80
2022/11/26 02:19:43;;;;;;;;;;;7.20;99.90;;;;;;5092953;28;19918;-81
2022/11/26 02:22:09;;;;;;;;;;;7.20;99.90;;;;;;5092474;28;20288;-80
2022/11/26 02:24:48;;;;;;;;;;;7.10;99.90;;;;;;5092552;28;19912;-80
2022/11/26 02:27:22;;;;;;;;;;;7.10;99.90;;;;;;5092754;28;20342;-81
2022/11/26 02:29:57;;;;;;;;;;;7.00;99.90;;;;;;5091372;28;20010;-80
2022/11/26 02:32:28;;;;;;;;;;;7.00;99.90;;;;;;5091117;28;19909;-80
2022/11/26 02:34:56;;;;;;;;;;;6.90;99.90;;;;;;5092692;28;19908;-80
2022/11/26 02:37:24;;;;;;;;;;;6.90;99.90;;;;;;5091388;28;19915;-81
2022/11/26 02:39:50;;;;;;;;;;;6.80;99.90;;;;;;5092585;28;19931;-81
2022/11/26 02:42:26;;;;;;;;;;;6.80;99.90;;;;;;5091090;28;19920;-80
2022/11/26 02:44:53;;;;;;;;;;;6.80;99.90;;;;;;5091154;28;19958;-80
2022/11/26 02:47:19;;;;;;;;;;;6.80;99.90;;;;;;5091234;28;19915;-80
2022/11/26 02:49:47;;;;;;;;;;;6.80;99.90;;;;;;5091305;28;19908;-81
2022/11/26 02:52:13;;;;;;;;;;;6.70;99.90;;;;;;5092209;28;20422;-80
2022/11/26 02:54:39;;;;;;;;;;;6.70;99.90;;;;;;5092521;28;19908;-80
2022/11/26 02:57:07;;;;;;;;;;;6.70;99.90;;;;;;5092426;28;19908;-80
2022/11/26 02:59:33;;;;;;;;;;;6.60;99.90;;;;;;5092378;28;19915;-80
2022/11/26 03:02:04;;;;;;;;;;;6.60;99.90;;;;;;5092028;28;20550;-80
2022/11/26 03:04:32;;;;;;;;;;;6.60;99.90;;;;;;5092403;28;19999;-80
2022/11/26 03:07:01;;;;;;;;;;;6.60;99.90;;;;;;5090928;28;19966;-80
2022/11/26 03:09:27;;;;;;;;;;;6.50;99.90;;;;;;5092265;28;19908;-80
2022/11/26 03:11:52;;;;;;;;;;;6.50;99.90;;;;;;5091916;28;19908;-80
2022/11/26 03:14:17;;;;;;;;;;;6.40;99.90;;;;;;5092296;28;19919;-80
2022/11/26 03:16:43;;;;;;;;;;;6.40;99.90;;;;;;5090911;28;19916;-81
2022/11/26 03:19:08;;;;;;;;;;;6.40;99.90;;;;;;5090964;28;19959;-80
2022/11/26 03:21:34;;;;;;;;;;;6.30;99.90;;;;;;5091725;28;20361;-80
2022/11/26 03:23:59;;;;;;;;;;;6.30;99.90;;;;;;5092282;28;20006;-80
2022/11/26 03:26:25;;;;;;;;;;;6.30;99.90;;;;;;5092063;28;19923;-80
2022/11/26 03:28:50;;;;;;;;;;;6.20;99.90;;;;;;5090892;28;19908;-80
2022/11/26 03:31:16;;;;;;;;;;;6.20;99.90;;;;;;5091910;28;19908;-80
2022/11/26 03:33:41;;;;;;;;;;;6.10;99.90;;;;;;5094714;28;19916;-81
2022/11/26 03:36:07;;;;;;;;;;;6.10;99.90;;;;;;5094529;28;20537;-80
2022/11/26 03:38:32;;;;;;;;;;;6.00;99.90;;;;;;5095779;28;19916;-80
2022/11/26 03:40:59;;;;;;;;;;;6.00;99.90;;;;;;5094125;28;19916;-80
2022/11/26 03:43:25;;;;;;;;;;;6.00;99.90;;;;;;5095476;28;19912;-81
2022/11/26 03:45:50;;;;;;;;;;;6.00;99.90;;;;;;5094235;28;19919;-80
2022/11/26 03:48:16;;;;;;;;;;;6.00;99.90;;;;;;5095501;28;19908;-80
2022/11/26 03:50:41;;;;;;;;;;;5.90;99.90;;;;;;5094074;28;19962;-80
2022/11/26 03:53:07;;;;;;;;;;;5.90;99.90;;;;;;5094977;28;19908;-80
2022/11/26 03:55:32;;;;;;;;;;;5.90;99.90;;;;;;5095330;28;19912;-80
2022/11/26 03:57:58;;;;;;;;;;;5.90;99.90;;;;;;5095428;28;19916;-80
2022/11/26 04:00:23;;;;;;;;;;;5.80;99.90;;;;;;5095450;28;19915;-81
2022/11/26 04:02:49;;;;;;;;;;;5.80;99.90;;;;;;5094510;28;19908;-81
2022/11/26 04:05:14;;;;;;;;;;;5.80;99.90;;;;;;5094170;28;19919;-81
2022/11/26 04:07:40;;;;;;;;;;;5.80;99.90;;;;;;5094066;28;19915;-81
2022/11/26 04:10:06;;;;;;;;;;;5.80;99.90;;;;;;5095223;28;19948;-80
2022/11/26 04:12:31;;;;;;;;;;;5.80;99.90;;;;;;5094577;28;19915;-80
2022/11/26 04:14:57;;;;;;;;;;;5.80;99.90;;;;;;5095147;28;19965;-80
2022/11/26 04:17:22;;;;;;;;;;;5.80;99.90;;;;;;5095128;28;20274;-81
2022/11/26 04:19:47;;;;;;;;;;;5.80;99.90;;;;;;5094942;28;19912;-80
2022/11/26 04:22:13;;;;;;;;;;;5.70;99.90;;;;;;5094632;28;19965;-80
2022/11/26 04:24:38;;;;;;;;;;;5.80;99.90;;;;;;5094841;28;19912;-81
2022/11/26 04:27:04;;;;;;;;;;;5.80;99.90;;;;;;5094962;28;19922;-80
2022/11/26 04:29:29;;;;;;;;;;;5.80;99.90;;;;;;5094856;28;19912;-81
2022/11/26 04:31:55;;;;;;;;;;;5.80;99.90;;;;;;5094377;28;20338;-80
2022/11/26 04:34:20;;;;;;;;;;;5.80;99.90;;;;;;5094874;28;19918;-81
2022/11/26 04:36:46;;;;;;;;;;;5.80;99.90;;;;;;5094734;28;19908;-80
2022/11/26 04:39:11;;;;;;;;;;;5.80;99.90;;;;;;5093208;28;19908;-80
2022/11/26 04:41:37;;;;;;;;;;;5.70;99.90;;;;;;5094425;28;19991;-80
2022/11/26 04:44:03;;;;;;;;;;;5.70;99.90;;;;;;5094628;28;19908;-81
2022/11/26 04:46:28;;;;;;;;;;;5.70;99.90;;;;;;5094366;28;19916;-81
2022/11/26 04:48:54;;;;;;;;;;;5.70;99.90;;;;;;5093317;28;20006;-80
2022/11/26 04:51:19;;;;;;;;;;;5.70;99.90;;;;;;5094056;28;19908;-80
2022/11/26 04:53:44;;;;;;;;;;;5.60;99.90;;;;;;5094240;28;20281;-81
2022/11/26 04:56:10;;;;;;;;;;;5.60;99.90;;;;;;5094427;28;19963;-81
2022/11/26 04:58:35;;;;;;;;;;;5.60;99.90;;;;;;5092956;28;19908;-81
2022/11/26 05:01:01;;;;;;;;;;;5.50;99.90;;;;;;5092916;28;20353;-81
2022/11/26 05:03:26;;;;;;;;;;;5.50;99.90;;;;;;5095206;28;19931;-81
2022/11/26 05:05:52;;;;;;;;;;;5.50;99.90;;;;;;5094696;28;19935;-82
2022/11/26 05:08:17;;;;;;;;;;;5.50;99.90;;;;;;5094717;28;19965;-81
2022/11/26 05:10:43;;;;;;;;;;;5.50;99.90;;;;;;5094490;28;20090;-80
2022/11/26 05:13:08;;;;;;;;;;;5.50;99.90;;;;;;5094488;28;19923;-81
2022/11/26 05:15:34;;;;;;;;;;;5.50;99.90;;;;;;5094646;28;19955;-81
2022/11/26 05:17:59;;;;;;;;;;;5.40;99.90;;;;;;5094537;28;19908;-82
2022/11/26 05:20:25;;;;;;;;;;;5.40;99.90;;;;;;5094559;28;19912;-80
2022/11/26 05:22:50;;;;;;;;;;;5.40;99.90;;;;;;5094064;28;19908;-82
2022/11/26 05:25:16;;;;;;;;;;;5.40;99.90;;;;;;5093335;28;19916;-81
2022/11/26 05:27:41;;;;;;;;;;;5.40;99.90;;;;;;5094568;28;20263;-82
2022/11/26 05:30:07;;;;;;;;;;;5.40;99.90;;;;;;5092882;28;20269;-81
2022/11/26 05:32:32;;;;;;;;;;;5.40;99.90;;;;;;5093644;28;19914;-81
2022/11/26 05:34:58;;;;;;;;;;;5.40;99.90;;;;;;5094129;28;19955;-81
2022/11/26 05:37:23;;;;;;;;;;;5.40;99.90;;;;;;5094298;28;19908;-81
2022/11/26 05:39:49;;;;;;;;;;;5.40;99.90;;;;;;5092931;28;19912;-80
2022/11/26 05:42:14;;;;;;;;;;;5.40;99.90;;;;;;5092682;28;20404;-81
2022/11/26 05:44:40;;;;;;;;;;;5.40;99.90;;;;;;5094171;28;19915;-81
2022/11/26 05:47:05;;;;;;;;;;;5.30;99.90;;;;;;5094150;28;19919;-82
2022/11/26 05:49:31;;;;;;;;;;;5.30;99.90;;;;;;5094088;28;20262;-80
2022/11/26 05:51:56;;;;;;;;;;;5.30;99.90;;;;;;5092644;28;19908;-80
2022/11/26 05:54:22;;;;;;;;;;;5.30;99.90;;;;;;5094397;28;19909;-80
2022/11/26 05:56:47;;;;;;;;;;;5.30;99.90;;;;;;5093737;28;19912;-80
2022/11/26 05:59:13;;;;;;;;;;;5.30;99.90;;;;;;5094142;28;19915;-80
2022/11/26 06:01:38;;;;;;;;;;;5.30;99.90;;;;;;5094163;28;20341;-80
2022/11/26 06:04:04;;;;;;;;;;;5.30;99.90;;;;;;5092698;28;19930;-80
2022/11/26 06:06:29;;;;;;;;;;;5.30;99.90;;;;;;5092837;28;19912;-80
2022/11/26 06:08:55;;;;;;;;;;;5.30;99.90;;;;;;5092999;28;20331;-80
2022/11/26 06:11:20;;;;;;;;;;;5.20;99.90;;;;;;5094146;28;20368;-80
2022/11/26 06:13:46;;;;;;;;;;;5.20;99.90;;;;;;5094426;28;19961;-80
2022/11/26 06:16:11;;;;;;;;;;;5.20;99.90;;;;;;5094317;28;19909;-80
2022/11/26 06:18:37;;;;;;;;;;;5.20;99.90;;;;;;5093019;28;19944;-80
2022/11/26 06:21:04;;;;;;;;;;;5.20;99.90;;;;;;5093644;28;19916;-80
2022/11/26 06:23:30;;;;;;;;;;;5.20;99.90;;;;;;5094484;28;20388;-80
2022/11/26 06:25:55;;;;;;;;;;;5.20;99.90;;;;;;5093883;28;20014;-80
2022/11/26 06:28:21;;;;;;;;;;;5.20;99.90;;;;;;5092589;28;20377;-80
2022/11/26 06:30:46;;;;;;;;;;;5.20;99.90;;;;;;5093407;28;19912;-80
2022/11/26 06:33:12;;;;;;;;;;;5.20;99.90;;;;;;5093649;28;19940;-80
2022/11/26 06:35:38;;;;;;;;;;;5.10;99.90;;;;;;5094181;28;19912;-80
2022/11/26 06:38:03;;;;;;;;;;;5.10;99.90;;;;;;5093678;28;19908;-80
2022/11/26 06:40:28;;;;;;;;;;;5.10;99.90;;;;;;5092495;28;19915;-80
2022/11/26 06:42:54;;;;;;;;;;;5.20;99.90;;;;;;5094101;28;19927;-80
2022/11/26 06:45:20;;;;;;;;;;;5.10;99.90;;;;;;5094184;28;19912;-80
2022/11/26 06:47:46;;;;;;;;;;;5.10;99.90;;;;;;5094218;28;20392;-80
2022/11/26 06:50:12;;;;;;;;;;;5.10;99.90;;;;;;5094046;28;19962;-80
2022/11/26 06:52:38;;;;;;;;;;;5.10;99.90;;;;;;5093022;28;19916;-80
2022/11/26 06:55:04;;;;;;;;;;;5.10;99.90;;;;;;5093270;28;19908;-80
2022/11/26 06:57:29;;;;;;;;;;;5.10;99.90;;;;;;5092385;28;19908;-80
2022/11/26 06:59:54;;;;;;;;;;;5.10;99.90;;;;;;5094067;28;19914;-80
2022/11/26 07:02:20;;;;;;;;;;;5.10;99.90;;;;;;5093394;28;20313;-80
2022/11/26 07:04:45;;;;;;;;;;;5.10;99.90;;;;;;5091844;28;19969;-80
2022/11/26 07:07:11;;;;;;;;;;;5.10;99.90;;;;;;5093518;28;19930;-80
2022/11/26 07:09:37;;;;;;;;;;;5.10;99.90;;;;;;5097204;28;19908;-80
2022/11/26 07:12:03;;;;;;;;;;;5.10;99.90;;;;;;5097404;28;19933;-80
2022/11/26 07:14:28;;;;;;;;;;;5.20;99.90;;;;;;5097486;28;19908;-80
2022/11/26 07:16:54;;;;;;;;;;;5.10;99.90;;;;;;5097303;28;20335;-80
2022/11/26 07:19:19;;;;;;;;;;;5.20;99.90;;;;;;5096860;28;19931;-80
2022/11/26 07:21:44;;;;;;;;;;;5.20;99.90;;;;;;5096615;28;19908;-80
2022/11/26 07:24:10;;;;;;;;;;;5.30;99.90;;;;;;5097014;28;20381;-80
2022/11/26 07:26:35;;;;;;;;;;;5.40;99.90;;;;;;5095551;28;19916;-80
2022/11/26 07:29:01;;;;;;;;;;;5.40;99.90;;;;;;5096202;28;19912;-80
2022/11/26 07:31:26;;;;;;;;;;;5.50;99.90;;;;;;5096762;28;19908;-80
2022/11/26 07:33:52;;;;;;;;;;;5.60;99.90;;;;;;5097454;28;20262;-81
2022/11/26 07:36:19;;;;;;;;;;;5.60;99.90;;;;;;5097147;28;19919;-82
2022/11/26 07:38:45;;;;;;;;;;;5.70;99.90;;;;;;5095200;28;20293;-81
2022/11/26 07:41:14;;;;;;;;;;;5.80;99.90;;;;;;5096071;28;19915;-80
2022/11/26 07:43:41;;;;;;;;;;;5.80;99.90;;;;;;5096298;28;19909;-80
2022/11/26 07:46:07;;;;;;;;;;;5.90;99.90;;;;;;5096412;28;19912;-80
2022/11/26 07:48:33;;;;;;;;;;;6.00;99.90;;;;;;5096001;28;19909;-80
2022/11/26 07:51:00;;;;;;;;;;;6.10;99.90;;;;;;5096076;28;20361;-80
2022/11/26 07:53:29;;;;;;;;;;;6.20;99.90;;;;;;5094547;28;19908;-81
2022/11/26 07:55:55;;;;;;;;;;;6.20;99.90;;;;;;5094356;28;19909;-81
2022/11/26 07:58:20;;;;;;;;;;;6.30;99.90;;;;;;5095535;28;19915;-80
2022/11/26 08:00:46;;;;;;;;;;;6.40;99.90;;;;;;5095861;28;20396;-81
2022/11/26 08:03:11;;;;;;;;;;;6.50;99.90;;;;;;5095215;28;19999;-80
2022/11/26 08:05:40;;;;;;;;;;;6.60;99.90;;;;;;5094142;28;19912;-80
2022/11/26 08:08:06;;;;;;;;;;;6.60;99.90;;;;;;5095421;28;19908;-81
2022/11/26 08:10:31;;;;;;;;;;;6.70;99.90;;;;;;5095381;28;19912;-81
2022/11/26 08:12:57;;;;;;;;;;;6.80;99.90;;;;;;5095129;28;19932;-80
2022/11/26 08:15:22;;;;;;;;;;;6.80;99.90;;;;;;5094161;28;20431;-81
2022/11/26 08:17:48;;;;;;;;;;;6.90;99.90;;;;;;5095293;28;20386;-81
2022/11/26 08:20:13;;;;;;;;;;;7.00;99.90;;;;;;5095108;28;19990;-80
2022/11/26 08:22:39;;;;;;;;;;;7.10;99.90;;;;;;5095632;28;20369;-81
2022/11/26 08:25:04;;;;;;;;;;;7.10;99.90;;;;;;5095488;28;19916;-80
2022/11/26 08:27:31;;;;;;;;;;;7.10;99.90;;;;;;5094443;28;19936;-81
2022/11/26 08:29:56;;;;;;;;;;;7.20;99.90;;;;;;5095466;28;19908;-80
2022/11/26 08:32:22;;;;;;;;;;;7.20;99.90;;;;;;5095209;28;19931;-80
2022/11/26 08:34:47;;;;;;;;;;;7.30;99.90;;;;;;5095707;28;19959;-80
2022/11/26 08:37:12;;;;;;;;;;;7.30;99.90;;;;;;5095805;28;19915;-81
2022/11/26 08:39:38;;;;;;;;;;;7.30;99.90;;;;;;5094385;28;19959;-80
2022/11/26 08:42:03;;;;;;;;;;;7.40;99.90;;;;;;5093646;28;19912;-80
2022/11/26 08:44:29;;;;;;;;;;;7.40;99.90;;;;;;5095527;28;19908;-81
2022/11/26 08:46:54;;;;;;;;;;;7.50;99.90;;;;;;5093762;28;20442;-80
2022/11/26 08:49:20;;;;;;;;;;;7.60;99.90;;;;;;5095288;28;19908;-81
2022/11/26 08:51:45;;;;;;;;;;;7.70;99.90;;;;;;5094747;28;19915;-81
2022/11/26 08:54:11;;;;;;;;;;;7.70;99.90;;;;;;5094918;28;20353;-81
2022/11/26 08:56:36;;;;;;;;;;;7.80;99.90;;;;;;5094507;28;19912;-80
2022/11/26 08:59:02;;;;;;;;;;;7.90;99.90;;;;;;5094399;28;19908;-80
2022/11/26 09:01:29;;;;;;;;;;;8.00;99.90;;;;;;5094108;28;19912;-81
2022/11/26 09:03:56;;;;;;;;;;;8.10;99.90;;;;;;5094833;28;19935;-81
2022/11/26 09:06:22;;;;;;;;;;;8.20;99.90;;;;;;5094325;28;19934;-81
2022/11/26 09:11:33;;;;;;;;;;;8.30;99.90;;;;;;5094093;28;19915;-81
2022/11/26 09:13:59;;;;;;;;;;;8.40;99.90;;;;;;5093163;28;20366;-82
2022/11/26 09:16:25;;;;;;;;;;;8.50;99.90;;;;;;5094522;28;19908;-81
2022/11/26 09:18:50;;;;;;;;;;;8.60;99.90;;;;;;5093431;28;19916;-81
2022/11/26 09:21:16;;;;;;;;;;;8.60;99.90;;;;;;5094342;28;19908;-80
2022/11/26 09:23:42;;;;;;;;;;;8.80;99.90;;;;;;5091536;28;19908;-81
2022/11/26 09:26:07;;;;;;;;;;;8.90;99.90;;;;;;5082333;28;19927;-82
2022/11/26 09:28:33;;;;;;;;;;;9.00;99.90;;;;;;5086135;28;19979;-81
2022/11/26 09:30:59;;;;;;;;;;;9.10;99.90;;;;;;5090794;28;19999;-82
2022/11/26 09:33:24;;;;;;;;;;;9.20;99.90;;;;;;5089489;28;19920;-81
2022/11/26 09:35:50;;;;;;;;;;;9.30;99.90;;;;;;5087831;28;19990;-80
2022/11/26 09:38:15;;;;;;;;;;;9.30;99.90;;;;;;5091323;28;20388;-81
2022/11/26 09:41:08;;;;;;;;;;;9.40;99.90;;;;;;5092677;28;19912;-81
2022/11/26 09:43:36;;;;;;;;;;;9.60;99.90;;;;;;5093404;28;19908;-83
2022/11/26 09:46:02;;;;;;;;;;;9.70;99.90;;;;;;5092361;28;19953;-81
2022/11/26 09:48:29;;;;;;;;;;;9.80;99.90;;;;;;5093684;28;19973;-81
2022/11/26 09:51:01;;;;;;;;;;;10.00;99.90;;;;;;5091636;28;20289;-83
2022/11/26 09:53:30;;;;;;;;;;;10.20;99.90;;;;;;5091522;28;19908;-83
2022/11/26 09:55:56;;;;;;;;;;;10.30;99.90;;;;;;5086761;28;19912;-83
2022/11/26 09:58:24;;;;;;;;;;;10.40;99.90;;;;;;5083309;28;19915;-83
2022/11/26 10:00:51;;;;;;;;;;;10.60;99.90;;;;;;5071287;28;19915;-82
2022/11/26 10:03:16;;;;;;;;;;;10.70;99.90;;;;;;5085799;28;19999;-83
2022/11/26 10:05:42;;;;;;;;;;;10.80;99.90;;;;;;5079697;28;20136;-83
2022/11/26 10:08:22;;;;;;;;;;;10.80;99.90;;;;;;5088452;28;19916;-84
2022/11/26 10:10:54;;;;;;;;;;;10.90;99.90;;;;;;5087750;28;20550;-82
2022/11/26 10:13:40;;;;;;;;;;;11.00;99.90;;;;;;5075508;28;19915;-83
2022/11/26 10:16:21;;;;;;;;;;;11.20;99.90;;;;;;5070183;28;19908;-83
2022/11/26 10:18:55;;;;;;;;;;;11.30;99.90;;;;;;5091473;28;20522;-83
2022/11/26 10:21:23;;;;;;;;;;;11.40;99.90;;;;;;5088247;28;19916;-83
2022/11/26 10:24:08;;;;;;;;;;;11.40;99.90;;;;;;5089745;28;19934;-84
2022/11/26 10:26:43;;;;;;;;;;;11.50;99.90;;;;;;5091181;28;19919;-84
2022/11/26 10:29:19;;;;;;;;;;;11.40;99.90;;;;;;5091226;28;19908;-83
2022/11/26 10:31:45;;;;;;;;;;;11.40;99.90;;;;;;5092581;28;20309;-83
2022/11/26 10:34:13;;;;;;;;;;;11.60;99.90;;;;;;5091407;28;19933;-84
2022/11/26 10:36:40;;;;;;;;;;;11.70;99.90;;;;;;5092768;28;20384;-84
2022/11/26 10:39:06;;;;;;;;;;;12.00;99.90;;;;;;5091381;28;19947;-84
2022/11/26 10:41:36;;;;;;;;;;;12.20;99.90;;;;;;5091452;28;19911;-84
2022/11/26 10:44:20;;;;;;;;;;;12.30;99.90;;;;;;5095447;28;20433;-83
2022/11/26 10:46:46;;;;;;;;;;;12.40;99.90;;;;;;5089303;22;19929;-86
2022/11/26 10:49:16;;;;;;;;;;;12.60;99.90;;;;;;5041467;28;19975;-86
2022/11/26 10:51:44;;;;;;;;;;;12.70;99.90;;;;;;5048320;28;19917;-86
2022/11/26 10:54:19;;;;;;;;;;;12.70;99.90;;;;;;5050768;28;19944;-86
2022/11/26 10:57:15;;;;;;;;;;;12.70;99.90;;;;;;5055153;28;19962;-87
2022/11/26 10:59:50;;;;;;;;;;;12.70;99.90;;;;;;5055288;28;20349;-86
2022/11/26 11:02:18;;;;;;;;;;;12.80;99.90;;;;;;5057151;28;19978;-84
2022/11/26 11:04:44;;;;;;;;;;;12.90;99.90;;;;;;5056076;28;19924;-84
2022/11/26 11:07:32;;;;;;;;;;;12.90;99.90;;;;;;5054380;28;19923;-85
2022/11/26 11:10:12;;;;;;;;;;;12.90;99.90;;;;;;5055813;28;19909;-84
2022/11/26 11:12:38;;;;;;;;;;;12.80;99.90;;;;;;5055340;28;20373;-86
2022/11/26 11:15:24;;;;;;;;;;;12.80;99.90;;;;;;5055008;28;20087;-85
2022/11/26 11:18:00;;;;;;;;;;;12.80;99.90;;;;;;5055254;28;19931;-84
2022/11/26 11:20:27;;;;;;;;;;;12.80;99.90;;;;;;5056713;28;19909;-84
2022/11/26 11:23:16;;;;;;;;;;;12.90;99.90;;;;;;5056892;28;19913;-83
2022/11/26 11:25:44;;;;;;;;;;;13.10;99.90;;;;;;5053324;28;19913;-82
2022/11/26 11:28:20;;;;;;;;;;;13.20;99.90;;;;;;5056755;28;19996;-82
2022/11/26 11:30:46;;;;;;;;;;;13.50;99.90;;;;;;5056971;28;19909;-82
2022/11/26 11:33:22;;;;;;;;;;;13.90;99.90;;;;;;5054944;28;19959;-82
2022/11/26 11:35:56;;;;;;;;;;;14.10;99.90;;;;;;5055759;28;19915;-83
2022/11/26 11:38:23;;;;;;;;;;;14.30;99.90;;;;;;5058090;28;19939;-84
2022/11/26 11:40:49;;;;;;;;;;;14.20;99.90;;;;;;5047001;28;19917;-84
2022/11/26 11:43:15;;;;;;;;;;;14.00;99.90;;;;;;5052828;28;19916;-83
2022/11/26 11:45:41;;;;;;;;;;;13.70;99.90;;;;;;5056700;28;19960;-84
2022/11/26 11:48:25;;;;;;;;;;;13.40;99.90;;;;;;5055496;28;20330;-85
2022/11/26 11:51:02;;;;;;;;;;;13.30;99.90;;;;;;5061458;28;19909;-83
2022/11/26 11:53:32;;;;;;;;;;;13.10;99.90;;;;;;5053986;28;19934;-84
2022/11/26 11:55:58;;;;;;;;;;;12.90;99.90;;;;;;5066438;28;20397;-83
2022/11/26 11:58:42;;;;;;;;;;;12.70;99.90;;;;;;5071396;28;19913;-83
2022/11/26 12:01:26;;;;;;;;;;;12.70;99.90;;;;;;5056086;28;19909;-84
2022/11/26 12:03:51;;;;;;;;;;;12.80;99.90;;;;;;5069436;28;20523;-81
2022/11/26 12:06:24;;;;;;;;;;;12.80;99.90;;;;;;5054041;28;19935;-82
2022/11/26 12:09:05;;;;;;;;;;;12.80;99.90;;;;;;5054055;28;19916;-81
2022/11/26 12:11:30;;;;;;;;;;;13.10;99.90;;;;;;5054858;28;19934;-81
2022/11/26 12:14:01;;;;;;;;;;;13.20;99.90;;;;;;5056866;28;19978;-81
2022/11/26 12:16:31;;;;;;;;;;;13.20;99.90;;;;;;5054507;28;19916;-80
2022/11/26 12:19:11;;;;;;;;;;;13.30;99.90;;;;;;5052955;28;19916;-81
2022/11/26 12:21:46;;;;;;;;;;;13.40;99.90;;;;;;5070880;28;19932;-81
2022/11/26 12:24:14;;;;;;;;;;;13.70;99.90;;;;;;5055849;28;20062;-82
2022/11/26 12:26:45;;;;;;;;;;;14.20;99.90;;;;;;5060944;28;20367;-81
2022/11/26 12:29:17;;;;;;;;;;;14.20;99.90;;;;;;5034081;28;19917;-85
2022/11/26 12:31:48;;;;;;;;;;;14.10;99.90;;;;;;5049711;28;19913;-83
2022/11/26 12:34:23;;;;;;;;;;;14.00;99.90;;;;;;5072505;28;20263;-84
2022/11/26 12:36:52;;;;;;;;;;;13.90;99.90;;;;;;5057698;28;19909;-84
2022/11/26 12:39:27;;;;;;;;;;;13.70;99.90;;;;;;5068091;28;19909;-83
2022/11/26 12:42:02;;;;;;;;;;;13.60;99.90;;;;;;5035871;28;19913;-85
2022/11/26 12:44:34;;;;;;;;;;;13.60;99.90;;;;;;5037004;28;19909;-83
2022/11/26 12:47:20;;;;;;;;;;;13.70;99.90;;;;;;5036950;28;19928;-84
2022/11/26 12:49:54;;;;;;;;;;;13.70;99.90;;;;;;5036345;28;20004;-84
2022/11/26 12:52:40;;;;;;;;;;;13.70;99.90;;;;;;5036292;28;19919;-86
2022/11/26 12:55:08;;;;;;;;;;;13.60;99.90;;;;;;5035941;28;20290;-84
2022/11/26 12:57:39;;;;;;;;;;;13.60;99.90;;;;;;5036387;28;19932;-85
2022/11/26 13:00:09;;;;;;;;;;;13.60;99.90;;;;;;5036688;28;20003;-85
2022/11/26 13:02:42;;;;;;;;;;;13.50;99.90;;;;;;5035628;28;20434;-85
2022/11/26 13:05:14;;;;;;;;;;;13.30;99.90;;;;;;5034078;28;20362;-84
2022/11/26 13:07:54;;;;;;;;;;;13.10;99.90;;;;;;5034610;28;19948;-84
2022/11/26 13:10:33;;;;;;;;;;;13.00;99.90;;;;;;5035630;28;19966;-84
2022/11/26 13:13:02;;;;;;;;;;;12.90;99.90;;;;;;5035307;28;19916;-85
2022/11/26 13:15:36;;;;;;;;;;;12.90;99.90;;;;;;5035517;28;19913;-82
2022/11/26 13:18:03;;;;;;;;;;;13.00;99.90;;;;;;5036254;28;19909;-84
2022/11/26 13:20:31;;;;;;;;;;;13.00;99.90;;;;;;5034999;28;19910;-84
2022/11/26 13:23:04;;;;;;;;;;;13.10;99.90;;;;;;5034581;28;19909;-85
2022/11/26 13:25:43;;;;;;;;;;;13.10;99.90;;;;;;5035912;28;19913;-84
2022/11/26 13:28:21;;;;;;;;;;;13.10;99.90;;;;;;5037695;28;19916;-84
2022/11/26 13:31:11;;;;;;;;;;;13.10;99.90;;;;;;5032005;28;19913;-85
2022/11/26 13:33:40;;;;;;;;;;;13.10;99.90;;;;;;5052963;28;20278;-85
2022/11/26 13:36:05;;;;;;;;;;;13.10;99.90;;;;;;5055370;28;19916;-85
2022/11/26 13:38:37;;;;;;;;;;;13.10;99.90;;;;;;5054641;28;19909;-81
2022/11/26 13:41:02;;;;;;;;;;;13.20;99.90;;;;;;5054047;28;20275;-82
2022/11/26 13:43:28;;;;;;;;;;;13.30;99.90;;;;;;5053451;28;19916;-81
2022/11/26 13:45:53;;;;;;;;;;;13.40;99.90;;;;;;5054261;28;19963;-83
2022/11/26 13:48:33;;;;;;;;;;;13.30;99.90;;;;;;5053872;28;19935;-82
2022/11/26 13:51:05;;;;;;;;;;;13.40;99.90;;;;;;5055555;28;19909;-82
2022/11/26 13:53:52;;;;;;;;;;;13.40;99.90;;;;;;5054563;28;19909;-83
2022/11/26 13:56:23;;;;;;;;;;;13.30;99.90;;;;;;5053706;28;19909;-83
2022/11/26 13:58:52;;;;;;;;;;;13.30;99.90;;;;;;5054456;28;19913;-84
2022/11/26 14:01:27;;;;;;;;;;;13.20;99.90;;;;;;5053514;28;19967;-82
2022/11/26 14:03:53;;;;;;;;;;;13.10;99.90;;;;;;5057563;28;19920;-82
2022/11/26 14:06:18;;;;;;;;;;;13.10;99.90;;;;;;5055271;28;19913;-83
2022/11/26 14:08:45;;;;;;;;;;;13.10;99.90;;;;;;5054853;28;19909;-81
2022/11/26 14:11:11;;;;;;;;;;;13.00;99.90;;;;;;5053182;28;19924;-82
2022/11/26 14:13:37;;;;;;;;;;;12.80;99.90;;;;;;5053624;28;20251;-83
2022/11/26 14:16:04;;;;;;;;;;;12.60;99.90;;;;;;5054328;28;19920;-84
2022/11/26 14:18:45;;;;;;;;;;;12.40;99.90;;;;;;5056300;28;19909;-82
2022/11/26 14:21:11;;;;;;;;;;;12.20;99.90;;;;;;5053796;28;19920;-83
2022/11/26 14:23:44;;;;;;;;;;;11.90;99.90;;;;;;5053416;28;20324;-83
2022/11/26 14:26:14;;;;;;;;;;;11.80;99.90;;;;;;5054505;28;19917;-83
2022/11/26 14:28:41;;;;;;;;;;;11.60;99.90;;;;;;5053002;28;20108;-83
2022/11/26 14:31:20;;;;;;;;;;;11.50;99.90;;;;;;5054316;28;19913;-82
2022/11/26 14:33:47;;;;;;;;;;;11.50;99.90;;;;;;5054280;28;19915;-82
2022/11/26 14:36:19;;;;;;;;;;;11.40;99.90;;;;;;5054432;28;19999;-82